Pays
Station

 

Conditions  météo  pour  Akureyri  -  Islande    Islande

  
16 °C
    
 
 

METAR pour Akureyri :

BIAR 231700Z 35003KT 260V050 9999 SCT054 16/09 Q1009 RMK WIND VADLAHEIDI 10512KT

 

Voici le bulletin pour Akureyri - Islande.
 
Le bulletin a été fait il y a 53 minutes, à 17:00 UTC .
Le vent soufflait à la vitesse de 1.5 mètres par seconde de Nord (350°), variant entre Ouest (260°) et Nord-est (050°).
 
La température était de 16 °C, avec un point de rosée à 9 °C.
La pression atmosphérique était de 1009 hPa.
L'humidité relative était de 63.1%.
 
Il y avait 3 à 4/8ème de nébulosité à une hauteur de 1646 mètres.
 
La visibilité globale était de supérieure à 10 kilomètres.
 

 
 
 

Pays :   A   B   C   D   E   F   G   H   I   J   K   L   M   N   O   P   Q   R   S   T   U   V   W   Y   Z

 

Partenaires :  Info Météo avec Met'info
Météo Marine avec MeteoMarine.net
Infos Site  |  Infos Légales  |  Crédits  |  Confidentialité
Contactez-nous  |  Ajouter aux favoris
© 2013-2019 METAR - Tous droits réservés